Time;durP1;ratioP1;P1;durP2;ratioP2;P2;SDS_P1;SDS_P2;PMS_P1;PMS_P2;Temp;Humidity;BMP_temperature;BMP_pressure;BME280_temperature;BME280_humidity;BME280_pressure;Samples;Min_cycle;Max_cycle;Signal;HPM_P1;HPM_P2
2021/09/19 00:01:12;;;;;;;6.60;3.80;;;;;;;15.85;76.46;101450.13;5093568;28;20093;-60
2021/09/19 00:03:41;;;;;;;7.47;4.15;;;;;;;15.81;76.79;101449.09;5093517;28;20036;-57
2021/09/19 00:06:08;;;;;;;7.93;3.95;;;;;;;15.80;76.95;101436.44;5094079;28;20051;-53
2021/09/19 00:08:37;;;;;;;7.55;4.20;;;;;;;15.76;77.06;101442.50;5094317;28;20036;-59
2021/09/19 00:11:04;;;;;;;6.40;4.30;;;;;;;15.73;77.61;101442.28;5093842;28;20036;-58
2021/09/19 00:13:32;;;;;;;9.30;4.72;;;;;;;15.67;77.21;101433.22;5078056;28;20119;-58
2021/09/19 00:16:00;;;;;;;6.38;3.83;;;;;;;15.62;77.75;101430.50;5093982;28;20240;-57
2021/09/19 00:18:27;;;;;;;7.22;4.20;;;;;;;15.44;78.50;101434.78;5093793;28;20068;-58
2021/09/19 00:20:55;;;;;;;7.05;4.28;;;;;;;15.41;79.00;101423.53;5094121;28;20049;-61
2021/09/19 00:23:23;;;;;;;6.05;3.70;;;;;;;15.29;79.59;101437.59;5092297;28;20036;-59
2021/09/19 00:25:50;;;;;;;6.22;3.78;;;;;;;15.30;79.17;101434.59;5093735;28;20531;-58
2021/09/19 00:28:18;;;;;;;6.25;3.80;;;;;;;15.26;79.52;101441.75;5093431;28;20039;-56
2021/09/19 00:30:46;;;;;;;5.35;3.55;;;;;;;15.30;79.60;101428.28;5093758;28;20040;-59
2021/09/19 00:33:13;;;;;;;5.35;3.50;;;;;;;15.31;79.35;101430.72;5092121;28;20036;-58
2021/09/19 00:35:41;;;;;;;4.60;3.50;;;;;;;15.31;79.11;101436.22;5093726;28;20087;-57
2021/09/19 00:38:10;;;;;;;5.30;3.65;;;;;;;15.26;79.81;101427.22;5093766;28;20127;-57
2021/09/19 00:40:37;;;;;;;7.07;3.97;;;;;;;15.32;79.45;101426.91;5075068;28;20517;-57
2021/09/19 00:43:05;;;;;;;5.65;3.65;;;;;;;15.30;79.20;101429.09;5093026;28;20040;-55
2021/09/19 00:45:33;;;;;;;5.82;3.72;;;;;;;15.28;79.49;101423.06;5091303;28;20074;-58
2021/09/19 00:48:01;;;;;;;5.28;3.78;;;;;;;15.28;79.49;101425.81;5093602;28;20062;-58
2021/09/19 00:50:29;;;;;;;7.00;3.50;;;;;;;15.29;79.61;101421.94;5093062;28;20089;-58
2021/09/19 00:52:57;;;;;;;9.07;4.30;;;;;;;15.28;79.67;101423.06;5093419;28;20028;-58
2021/09/19 00:55:24;;;;;;;5.97;3.72;;;;;;;15.34;79.34;101419.19;5081101;28;20040;-59
2021/09/19 00:57:54;;;;;;;5.10;3.90;;;;;;;15.33;79.27;101422.22;5092731;28;20382;-58
2021/09/19 01:00:28;;;;;;;5.88;3.80;;;;;;;15.34;79.29;101410.97;5094255;28;20398;-60
2021/09/19 01:02:56;;;;;;;5.65;3.78;;;;;;;15.34;78.91;101424.69;5092673;28;20066;-59
2021/09/19 01:05:24;;;;;;;7.00;4.22;;;;;;;15.32;79.27;101423.31;5092261;28;20048;-59
2021/09/19 01:07:52;;;;;;;6.78;3.80;;;;;;;15.26;79.66;101428.03;5082156;28;20112;-59
2021/09/19 01:10:23;;;;;;;6.60;3.80;;;;;;;15.28;79.16;101428.56;5092134;28;20486;-59
2021/09/19 01:12:53;;;;;;;7.07;3.97;;;;;;;15.26;79.47;101422.53;5092650;28;20032;-59
2021/09/19 01:15:21;;;;;;;6.22;4.00;;;;;;;15.23;79.67;101425.84;5091385;28;20040;-59
2021/09/19 01:17:49;;;;;;;7.50;4.90;;;;;;;15.22;79.33;101421.44;5091500;28;20044;-60
2021/09/19 01:20:17;;;;;;;7.13;4.13;;;;;;;15.21;79.39;101419.00;5092896;28;20054;-59
2021/09/19 01:22:58;;;;;;;6.03;3.80;;;;;;;15.22;79.71;101421.44;5091508;28;20047;-59
2021/09/19 01:25:26;;;;;;;6.15;4.28;;;;;;;15.27;79.41;101423.34;5079483;28;20465;-58
2021/09/19 01:27:53;;;;;;;6.05;4.00;;;;;;;15.21;79.09;101419.81;5092664;28;20059;-59
2021/09/19 01:30:24;;;;;;;5.82;4.10;;;;;;;15.16;79.37;101416.31;5091496;28;20147;-59
2021/09/19 01:32:51;;;;;;;5.65;4.00;;;;;;;15.15;79.77;101412.72;5092563;28;20048;-59
2021/09/19 01:35:19;;;;;;;5.57;3.95;;;;;;;15.20;79.55;101407.22;5088161;28;20048;-57
2021/09/19 01:37:47;;;;;;;6.38;4.20;;;;;;;15.19;79.62;101404.75;5092244;28;20502;-59
2021/09/19 01:40:15;;;;;;;7.25;4.10;;;;;;;15.21;79.29;101406.09;5091073;28;20515;-59
2021/09/19 01:42:43;;;;;;;8.18;3.85;;;;;;;15.23;79.50;101403.88;5091965;28;20051;-59
2021/09/19 01:45:11;;;;;;;6.88;4.18;;;;;;;15.21;79.39;101408.84;5092264;28;20050;-57
2021/09/19 01:47:40;;;;;;;5.97;3.85;;;;;;;15.17;79.64;101401.47;5092686;28;20052;-60
2021/09/19 01:50:09;;;;;;;5.82;4.00;;;;;;;15.12;79.61;101405.06;5091938;28;20044;-58
2021/09/19 01:52:37;;;;;;;5.38;3.80;;;;;;;15.14;80.32;101408.34;5091857;28;20035;-59
2021/09/19 01:55:05;;;;;;;6.57;4.00;;;;;;;15.16;79.48;101405.31;5079916;28;20097;-58
2021/09/19 01:57:33;;;;;;;5.57;4.00;;;;;;;15.13;79.52;101402.03;5092368;28;20032;-57
2021/09/19 02:00:01;;;;;;;5.30;3.95;;;;;;;15.16;79.76;101395.16;5092285;28;20425;-57
2021/09/19 02:02:34;;;;;;;6.07;3.80;;;;;;;15.19;79.77;101391.84;5092269;28;20130;-58
2021/09/19 02:05:04;;;;;;;6.00;4.13;;;;;;;15.20;79.21;101393.50;5085200;28;20078;-55
2021/09/19 02:07:33;;;;;;;5.53;3.75;;;;;;;15.19;78.86;101386.34;5092480;28;20048;-58
2021/09/19 02:10:02;;;;;;;6.07;4.28;;;;;;;15.12;79.11;101385.84;5091651;28;20040;-58
2021/09/19 02:12:30;;;;;;;6.22;4.13;;;;;;;15.08;79.61;101388.34;5090926;28;20032;-58
2021/09/19 02:14:57;;;;;;;5.43;4.30;;;;;;;15.06;79.30;101384.25;5088469;28;20032;-59
2021/09/19 02:17:25;;;;;;;18.05;5.80;;;;;;;15.03;79.52;101382.06;5078770;28;20046;-59
2021/09/19 02:19:52;;;;;;;6.72;4.53;;;;;;;15.03;79.65;101380.16;5092375;28;20044;-60
2021/09/19 02:22:20;;;;;;;7.25;4.80;;;;;;;15.05;79.85;101377.91;5091933;28;20123;-56
2021/09/19 02:24:48;;;;;;;5.22;3.90;;;;;;;15.02;79.57;101366.69;5091782;28;20058;-59
2021/09/19 02:27:15;;;;;;;7.40;4.30;;;;;;;15.02;79.31;101361.22;5090801;28;20074;-59
2021/09/19 02:29:43;;;;;;;7.15;4.30;;;;;;;14.99;79.54;101370.03;5092065;28;20123;-57
2021/09/19 02:32:10;;;;;;;6.30;4.15;;;;;;;14.95;80.28;101366.19;5091527;28;20127;-60
2021/09/19 02:34:38;;;;;;;4.70;3.65;;;;;;;14.96;80.38;101365.09;5091333;28;20048;-57
2021/09/19 02:37:05;;;;;;;8.73;4.05;;;;;;;14.98;80.55;101365.63;5081035;28;20044;-57
2021/09/19 02:39:33;;;;;;;5.93;3.88;;;;;;;15.02;80.21;101363.97;5090853;28;20043;-58
2021/09/19 02:42:01;;;;;;;4.65;3.40;;;;;;;15.05;79.93;101366.94;5091532;28;20044;-57
2021/09/19 02:44:28;;;;;;;6.20;3.90;;;;;;;15.09;79.67;101365.28;5091706;28;20028;-59
2021/09/19 02:46:56;;;;;;;7.72;3.88;;;;;;;15.11;79.49;101365.00;5087556;28;20471;-59
2021/09/19 02:49:23;;;;;;;4.28;3.25;;;;;;;15.10;79.78;101363.34;5087903;28;20036;-59
2021/09/19 02:51:51;;;;;;;6.20;3.90;;;;;;;15.05;79.69;101363.38;5091473;28;20153;-57
2021/09/19 02:54:18;;;;;;;5.70;3.60;;;;;;;15.03;80.03;101360.09;5091280;28;20040;-58
2021/09/19 02:56:46;;;;;;;7.03;4.20;;;;;;;15.03;79.44;101357.34;5095249;28;20560;-58
2021/09/19 02:59:14;;;;;;;6.95;4.53;;;;;;;14.98;79.76;101349.97;5091283;28;20067;-58
2021/09/19 03:01:42;;;;;;;6.55;4.10;;;;;;;14.94;80.05;101359.09;5094093;28;20046;-59
2021/09/19 03:04:10;;;;;;;6.93;3.95;;;;;;;14.91;79.94;101347.56;5095193;28;20488;-60
2021/09/19 03:06:37;;;;;;;5.95;3.35;;;;;;;14.88;80.17;101350.84;5094360;28;20498;-60
2021/09/19 03:09:05;;;;;;;6.82;4.28;;;;;;;14.89;80.05;101341.53;5086262;28;20055;-59
2021/09/19 03:11:33;;;;;;;4.68;3.38;;;;;;;14.94;80.51;101348.91;5095242;28;20045;-59
2021/09/19 03:14:01;;;;;;;6.70;4.15;;;;;;;14.98;80.18;101349.16;5095533;28;20047;-59
2021/09/19 03:16:28;;;;;;;5.65;3.95;;;;;;;14.97;79.93;101344.78;5095081;28;20035;-60
2021/09/19 03:18:56;;;;;;;9.10;3.88;;;;;;;15.01;80.28;101349.44;5087508;28;20036;-60
2021/09/19 03:21:24;;;;;;;6.40;3.85;;;;;;;14.98;79.90;101349.16;5078748;28;20052;-59
2021/09/19 03:23:51;;;;;;;4.88;3.42;;;;;;;14.88;79.88;101356.34;5081253;28;20050;-60
2021/09/19 03:26:19;;;;;;;6.22;3.63;;;;;;;14.82;80.29;101354.75;5094931;28;20127;-60
2021/09/19 03:28:46;;;;;;;7.00;3.97;;;;;;;14.80;80.23;101354.22;5088004;28;20051;-59
2021/09/19 03:31:14;;;;;;;5.38;3.90;;;;;;;14.76;80.19;101363.28;5095171;28;20036;-59
2021/09/19 03:33:42;;;;;;;8.63;4.20;;;;;;;14.66;80.54;101355.94;5094655;28;20085;-59
2021/09/19 03:36:09;;;;;;;5.93;3.97;;;;;;;14.63;80.73;101353.78;5093897;28;20044;-58
2021/09/19 03:38:37;;;;;;;7.10;4.25;;;;;;;14.65;81.15;101357.06;5092935;28;20044;-60
2021/09/19 03:41:05;;;;;;;6.57;4.00;;;;;;;14.65;80.69;101354.31;5092692;28;20032;-59
2021/09/19 03:43:32;;;;;;;5.97;4.10;;;;;;;14.62;81.34;101358.44;5093496;28;20036;-57
2021/09/19 03:46:00;;;;;;;9.35;4.00;;;;;;;14.61;81.12;101351.28;5094566;28;20098;-57
2021/09/19 03:48:28;;;;;;;6.78;3.80;;;;;;;14.58;81.10;101351.06;5094238;28;20561;-57
2021/09/19 03:50:55;;;;;;;6.22;3.85;;;;;;;14.56;81.57;101358.75;5093205;28;20032;-57
2021/09/19 03:53:23;;;;;;;7.70;4.47;;;;;;;14.55;81.40;101357.94;5094501;28;20044;-59
2021/09/19 03:55:50;;;;;;;7.72;4.65;;;;;;;14.55;81.65;101351.59;5094339;28;20048;-55
2021/09/19 03:58:18;;;;;;;8.55;4.20;;;;;;;14.52;81.44;101354.88;5093650;28;20039;-58
2021/09/19 04:00:46;;;;;;;8.63;4.20;;;;;;;14.49;81.51;101356.25;5087010;28;20051;-58
2021/09/19 04:03:13;;;;;;;9.35;4.50;;;;;;;14.46;81.76;101354.09;5093935;28;20032;-54
2021/09/19 04:05:41;;;;;;;7.07;4.50;;;;;;;14.51;82.11;101354.06;5093720;28;20187;-59
2021/09/19 04:08:09;;;;;;;7.45;3.80;;;;;;;14.53;81.62;101353.75;5094153;28;20215;-59
2021/09/19 04:10:36;;;;;;;4.30;3.28;;;;;;;14.56;81.97;101358.75;5089772;28;20060;-58
2021/09/19 04:13:04;;;;;;;10.20;4.57;;;;;;;14.61;81.50;101361.44;5094127;28;20040;-59
2021/09/19 04:15:32;;;;;;;6.57;4.13;;;;;;;14.57;81.45;101357.63;5094333;28;20486;-58
2021/09/19 04:17:59;;;;;;;5.78;3.78;;;;;;;14.58;81.86;101370.25;5092357;28;20048;-58
2021/09/19 04:20:27;;;;;;;7.28;4.20;;;;;;;14.61;80.93;101361.44;5074837;28;20049;-59
2021/09/19 04:22:54;;;;;;;7.22;3.92;;;;;;;14.61;81.53;101361.44;5086270;28;20040;-58
2021/09/19 04:25:22;;;;;;;6.00;3.88;;;;;;;14.64;81.61;101367.19;5093869;28;20044;-58
2021/09/19 04:27:50;;;;;;;6.20;3.63;;;;;;;14.59;81.46;101358.97;5093906;28;20039;-59
2021/09/19 04:30:17;;;;;;;6.05;3.72;;;;;;;14.56;81.95;101358.75;5093248;28;20410;-58
2021/09/19 04:32:45;;;;;;;7.22;3.83;;;;;;;14.57;81.54;101363.09;5093333;28;20054;-59
2021/09/19 04:35:13;;;;;;;7.18;4.70;;;;;;;14.55;81.41;101359.81;5092024;28;20123;-59
2021/09/19 04:37:41;;;;;;;7.15;4.65;;;;;;;14.47;81.29;101359.28;5093539;28;20047;-58
2021/09/19 04:40:09;;;;;;;5.75;4.05;;;;;;;14.36;81.71;101363.19;5092082;28;20040;-57
2021/09/19 04:42:37;;;;;;;5.80;3.78;;;;;;;14.35;82.33;101358.78;5093399;28;20113;-55
2021/09/19 04:45:08;;;;;;;7.40;4.80;;;;;;;14.42;82.53;101362.03;5093495;28;20446;-59
2021/09/19 04:47:36;;;;;;;6.72;4.07;;;;;;;14.43;82.03;101360.13;5093087;28;20050;-59
2021/09/19 04:50:05;;;;;;;8.52;4.35;;;;;;;14.36;82.21;101354.97;5088001;28;20040;-58
2021/09/19 04:52:32;;;;;;;5.40;3.85;;;;;;;14.39;82.79;101357.13;5093165;28;20050;-58
2021/09/19 04:55:00;;;;;;;8.32;4.50;;;;;;;14.47;82.05;101351.06;5093174;28;20040;-58
2021/09/19 04:57:28;;;;;;;7.15;4.70;;;;;;;14.48;81.68;101352.72;5093457;28;20054;-54
2021/09/19 04:59:55;;;;;;;8.00;5.18;;;;;;;14.44;81.78;101354.34;5084908;28;20044;-58
2021/09/19 05:02:23;;;;;;;7.00;4.95;;;;;;;14.39;82.20;101357.13;5093183;28;20062;-59
2021/09/19 05:04:51;;;;;;;6.00;4.18;;;;;;;14.39;82.76;101359.06;5092272;28;20466;-59
2021/09/19 05:07:18;;;;;;;8.90;4.13;;;;;;;14.44;82.80;101353.53;5093004;28;20123;-59
2021/09/19 05:09:46;;;;;;;8.95;3.80;;;;;;;14.46;82.51;101354.91;5090225;28;20491;-59
2021/09/19 05:12:13;;;;;;;7.18;4.55;;;;;;;14.45;82.29;101352.44;5092757;28;20036;-58
2021/09/19 05:14:41;;;;;;;8.38;4.70;;;;;;;14.44;82.55;101353.53;5092649;28;20452;-55
2021/09/19 05:17:09;;;;;;;7.80;4.35;;;;;;;14.39;82.36;101353.56;5091718;28;20043;-58
2021/09/19 05:19:36;;;;;;;7.25;4.50;;;;;;;14.28;82.71;101359.06;5090392;28;20040;-56
2021/09/19 05:22:04;;;;;;;7.28;4.45;;;;;;;14.25;83.30;101353.34;5092091;28;20585;-57
2021/09/19 05:24:32;;;;;;;9.57;5.28;;;;;;;14.32;83.54;101353.88;5092272;28;20494;-58
2021/09/19 05:27:00;;;;;;;9.13;5.32;;;;;;;14.35;82.85;101353.31;5092589;28;20131;-53
2021/09/19 05:29:28;;;;;;;9.55;5.32;;;;;;;14.35;83.03;101347.81;5092040;28;20471;-57
2021/09/19 05:31:55;;;;;;;9.55;5.97;;;;;;;14.36;83.10;101349.47;5086010;28;20032;-59
2021/09/19 05:34:23;;;;;;;8.80;5.15;;;;;;;14.31;82.81;101346.75;5092119;28;20051;-58
2021/09/19 05:36:51;;;;;;;9.15;5.55;;;;;;;14.31;83.31;101349.50;5092312;28;20046;-59
2021/09/19 05:39:18;;;;;;;9.13;5.82;;;;;;;14.29;82.93;101354.44;5090959;28;20036;-59
2021/09/19 05:41:46;;;;;;;7.70;4.95;;;;;;;14.32;83.97;101353.88;5092567;28;20044;-58
2021/09/19 05:44:13;;;;;;;7.40;4.40;;;;;;;14.35;83.88;101364.25;5092545;28;20044;-56
2021/09/19 05:46:41;;;;;;;10.43;4.97;;;;;;;14.37;83.71;101356.59;5094225;28;20050;-57
2021/09/19 05:49:09;;;;;;;9.00;5.68;;;;;;;14.36;83.76;101360.44;5095615;28;20047;-58
2021/09/19 05:51:36;;;;;;;14.13;6.38;;;;;;;14.32;84.25;101353.88;5084731;28;20092;-57
2021/09/19 05:54:04;;;;;;;10.88;5.15;;;;;;;14.34;84.37;101356.34;5095434;28;20517;-58
2021/09/19 05:56:32;;;;;;;12.23;6.15;;;;;;;14.26;83.90;101358.56;5094378;28;20039;-59
2021/09/19 05:58:59;;;;;;;9.55;4.95;;;;;;;14.27;84.20;101368.41;5092889;28;20436;-58
2021/09/19 06:01:27;;;;;;;9.63;5.60;;;;;;;14.20;84.24;101362.41;5091611;28;20036;-58
2021/09/19 06:03:55;;;;;;;9.60;5.60;;;;;;;14.22;85.01;101365.69;5091913;28;20127;-59
2021/09/19 06:06:23;;;;;;;8.77;4.55;;;;;;;14.32;85.34;101374.97;5091537;28;20498;-59
2021/09/19 06:08:50;;;;;;;7.90;5.03;;;;;;;14.39;85.18;101370.84;5091940;28;20040;-57
2021/09/19 06:11:18;;;;;;;8.85;5.28;;;;;;;14.44;84.11;101386.44;5087079;28;20044;-57
2021/09/19 06:13:45;;;;;;;8.90;5.20;;;;;;;14.31;83.88;101378.81;5091771;28;20066;-60
2021/09/19 06:16:13;;;;;;;11.55;6.07;;;;;;;14.23;84.50;101380.22;5091432;28;20585;-56
2021/09/19 06:18:41;;;;;;;8.57;6.00;;;;;;;14.22;84.73;101384.06;5091691;28;20101;-59
2021/09/19 06:21:08;;;;;;;10.23;6.38;;;;;;;14.23;84.91;101380.22;5091176;28;20137;-60
2021/09/19 06:23:36;;;;;;;9.10;6.00;;;;;;;14.26;84.84;101376.91;5078221;28;20044;-60
2021/09/19 06:26:04;;;;;;;11.82;5.90;;;;;;;14.29;84.83;101376.38;5090245;28;20131;-59
2021/09/19 06:28:32;;;;;;;9.07;5.80;;;;;;;14.33;84.90;101377.44;5091313;28;20111;-57
2021/09/19 06:31:00;;;;;;;9.50;5.85;;;;;;;14.35;84.56;101379.91;5090417;28;20131;-59
2021/09/19 06:33:29;;;;;;;8.30;5.53;;;;;;;14.33;84.67;101371.94;5091685;28;20121;-59
2021/09/19 06:35:58;;;;;;;8.50;5.75;;;;;;;14.32;84.53;101375.78;5092182;28;20048;-58
2021/09/19 06:38:25;;;;;;;10.57;6.60;;;;;;;14.26;84.90;101372.25;5094992;28;20040;-60
2021/09/19 06:40:53;;;;;;;6.47;4.93;;;;;;;14.28;85.24;101374.72;5095661;28;20047;-56
2021/09/19 06:43:21;;;;;;;10.93;5.68;;;;;;;14.31;85.27;101370.59;5084528;28;20044;-59
2021/09/19 06:45:48;;;;;;;7.97;5.63;;;;;;;14.32;84.96;101373.06;5091079;28;20455;-59
2021/09/19 06:48:16;;;;;;;8.70;6.70;;;;;;;14.31;85.12;101385.13;5091301;28;20040;-61
2021/09/19 06:50:44;;;;;;;10.50;6.60;;;;;;;14.36;85.14;101376.88;5091438;28;20044;-62
2021/09/19 06:53:11;;;;;;;9.73;6.53;;;;;;;14.45;85.83;101386.16;5084231;28;20055;-61
2021/09/19 06:55:39;;;;;;;9.23;5.93;;;;;;;14.49;85.33;101389.16;5091551;28;20481;-62
2021/09/19 06:58:07;;;;;;;11.32;6.82;;;;;;;14.49;84.83;101389.97;5091258;28;20032;-64
2021/09/19 07:00:34;;;;;;;8.80;6.30;;;;;;;14.48;84.64;101387.53;5073341;28;20063;-61
2021/09/19 07:03:02;;;;;;;10.77;5.15;;;;;;;14.47;84.81;101394.09;5087531;28;20079;-61
2021/09/19 07:05:30;;;;;;;10.25;6.70;;;;;;;14.48;84.55;101385.63;5090825;28;20494;-62
2021/09/19 07:07:58;;;;;;;11.70;7.15;;;;;;;14.47;84.78;101383.94;5090889;28;20056;-62
2021/09/19 07:10:25;;;;;;;8.95;6.90;;;;;;;14.48;84.67;101391.09;5090919;28;20033;-62
2021/09/19 07:12:53;;;;;;;8.70;5.35;;;;;;;14.45;84.91;101394.38;5089042;28;20075;-61
2021/09/19 07:15:21;;;;;;;9.27;6.15;;;;;;;14.46;85.04;101392.47;5071929;28;20127;-62
2021/09/19 07:17:48;;;;;;;12.88;7.57;;;;;;;14.44;85.23;101395.50;5091146;28;20538;-61
2021/09/19 07:20:16;;;;;;;9.98;5.70;;;;;;;14.44;85.42;101394.69;5090869;28;20043;-61
2021/09/19 07:22:46;;;;;;;10.82;6.38;;;;;;;14.47;85.29;101392.19;5091221;28;20044;-61
2021/09/19 07:25:15;;;;;;;13.95;6.93;;;;;;;14.49;85.41;101391.91;5088788;28;20055;-60
2021/09/19 07:27:43;;;;;;;9.32;6.47;;;;;;;14.45;85.21;101394.38;5088328;28;20036;-61
2021/09/19 07:30:11;;;;;;;9.55;6.90;;;;;;;14.47;85.49;101405.06;5090652;28;20040;-63
2021/09/19 07:32:39;;;;;;;10.23;6.53;;;;;;;14.46;85.70;101403.44;5090321;28;20036;-61
2021/09/19 07:35:08;;;;;;;15.25;10.68;;;;;;;14.50;85.88;101404.50;5089911;28;20048;-62
2021/09/19 07:37:36;;;;;;;12.65;7.68;;;;;;;14.54;85.82;101400.13;5089346;28;20047;-63
2021/09/19 07:40:05;;;;;;;13.18;8.50;;;;;;;14.61;85.81;101406.16;5089696;28;20472;-62
2021/09/19 07:42:33;;;;;;;15.82;10.20;;;;;;;14.73;85.86;101405.00;5092515;28;20048;-62
2021/09/19 07:45:01;;;;;;;13.27;9.77;;;;;;;14.76;85.68;101413.47;5092436;28;20494;-62
2021/09/19 07:47:29;;;;;;;18.95;11.43;;;;;;;14.84;85.68;101420.28;5096107;28;20380;-63
2021/09/19 07:49:57;;;;;;;14.45;7.28;;;;;;;14.88;85.26;101421.38;5095092;28;20040;-62
2021/09/19 07:52:26;;;;;;;16.73;6.88;;;;;;;14.95;85.60;101421.09;5094505;28;20502;-60
2021/09/19 07:54:56;;;;;;;10.38;6.70;;;;;;;14.98;85.79;101418.56;5092987;28;20047;-63
2021/09/19 07:57:25;;;;;;;10.48;6.50;;;;;;;14.99;85.32;101417.50;5096488;28;20044;-61
2021/09/19 07:59:54;;;;;;;12.52;6.57;;;;;;;15.07;85.14;101424.31;5097225;28;20044;-58
2021/09/19 08:02:21;;;;;;;13.70;6.05;;;;;;;15.09;84.60;101427.59;5096855;28;20093;-62
2021/09/19 08:04:50;;;;;;;11.23;6.10;;;;;;;15.14;84.40;101424.81;5092516;28;20047;-61
2021/09/19 08:07:21;;;;;;;11.70;6.35;;;;;;;15.19;84.66;101422.03;5082940;28;20036;-61
2021/09/19 08:09:49;;;;;;;20.98;6.78;;;;;;;15.30;85.66;101429.09;5093596;28;20040;-62
2021/09/19 08:12:17;;;;;;;10.60;6.90;;;;;;;15.32;83.71;101426.91;5093520;28;20036;-61
2021/09/19 08:14:45;;;;;;;13.68;6.68;;;;;;;15.33;84.47;101428.53;5092343;28;20410;-61
2021/09/19 08:17:13;;;;;;;12.98;6.40;;;;;;;15.36;83.93;101426.31;5093844;28;20044;-61
2021/09/19 08:19:41;;;;;;;12.18;5.72;;;;;;;15.41;83.40;101434.50;5093851;28;20044;-59
2021/09/19 08:22:08;;;;;;;11.75;6.75;;;;;;;15.41;83.18;101421.59;5079951;28;20040;-61
2021/09/19 08:24:36;;;;;;;11.10;6.00;;;;;;;15.48;83.45;101424.84;5092750;28;20036;-60
2021/09/19 08:27:04;;;;;;;11.20;5.50;;;;;;;15.51;83.12;101426.19;5088072;28;20196;-60
2021/09/19 08:29:32;;;;;;;9.07;4.97;;;;;;;15.46;82.70;101426.22;5084134;28;20047;-61
2021/09/19 08:32:00;;;;;;;10.95;5.82;;;;;;;15.51;83.24;101429.78;5093676;28;20453;-60
2021/09/19 08:34:29;;;;;;;9.70;5.38;;;;;;;15.50;82.43;101432.81;5093277;28;20051;-60
2021/09/19 08:36:57;;;;;;;10.18;5.57;;;;;;;15.47;82.23;101433.38;5091716;28;20046;-61
2021/09/19 08:39:24;;;;;;;12.10;6.22;;;;;;;15.56;83.01;101439.88;5091917;28;20068;-61
2021/09/19 08:41:52;;;;;;;8.38;5.18;;;;;;;15.55;82.13;101441.00;5082724;28;20462;-58
2021/09/19 08:44:21;;;;;;;12.82;5.20;;;;;;;15.57;82.57;101447.03;5088588;28;20040;-61
2021/09/19 08:46:48;;;;;;;11.00;5.82;;;;;;;15.54;81.83;101442.13;5092311;28;20047;-62
2021/09/19 08:49:16;;;;;;;10.23;5.03;;;;;;;15.54;82.08;101450.38;5092009;28;20040;-61
2021/09/19 08:51:44;;;;;;;9.68;5.00;;;;;;;15.56;82.27;101448.13;5093351;28;20037;-62
2021/09/19 08:54:12;;;;;;;9.70;4.55;;;;;;;15.62;82.74;101444.25;5093219;28;20050;-61
2021/09/19 08:56:39;;;;;;;10.48;5.28;;;;;;;15.65;82.37;101440.09;5085801;28;20040;-61
2021/09/19 08:59:07;;;;;;;6.78;4.18;;;;;;;15.70;82.48;101437.34;5093193;28;20040;-61
2021/09/19 09:01:35;;;;;;;8.23;4.88;;;;;;;15.80;81.94;101433.69;5092953;28;20048;-60
2021/09/19 09:04:04;;;;;;;11.40;5.47;;;;;;;15.82;81.63;101442.47;5091754;28;20090;-60
2021/09/19 09:06:38;;;;;;;9.35;5.00;;;;;;;15.82;81.65;101439.72;5089584;28;20036;-60
2021/09/19 09:09:16;;;;;;;7.15;4.70;;;;;;;15.85;81.50;101437.22;5092972;28;20036;-60
2021/09/19 09:12:07;;;;;;;9.82;4.72;;;;;;;15.90;80.69;101447.34;5092991;28;20047;-61
2021/09/19 09:14:43;;;;;;;15.18;9.45;;;;;;;15.90;81.19;101450.09;5092889;28;20032;-61
2021/09/19 09:17:17;;;;;;;10.20;5.45;;;;;;;15.90;80.50;101458.34;5079612;28;20040;-61
2021/09/19 09:19:47;;;;;;;9.25;4.85;;;;;;;15.94;80.99;101459.38;5092829;28;20055;-60
2021/09/19 09:22:22;;;;;;;8.73;4.93;;;;;;;15.98;79.78;101458.53;5091241;28;20040;-61
2021/09/19 09:25:11;;;;;;;8.23;4.72;;;;;;;16.10;80.03;101452.66;5092311;28;20040;-58
2021/09/19 09:27:44;;;;;;;8.23;4.40;;;;;;;16.10;79.49;101457.34;5087295;28;20060;-60
2021/09/19 09:30:14;;;;;;;18.52;11.82;;;;;;;16.14;79.90;101453.72;5074101;28;20048;-61
2021/09/19 09:32:49;;;;;;;7.53;4.65;;;;;;;16.19;79.39;101445.41;5091431;28;20044;-61
2021/09/19 09:35:17;;;;;;;7.35;3.88;;;;;;;16.28;79.86;101444.75;5092145;28;20406;-61
2021/09/19 09:37:45;;;;;;;11.82;6.68;;;;;;;16.32;79.53;101449.41;5091498;28;20521;-62
2021/09/19 09:40:25;;;;;;;13.52;7.70;;;;;;;16.40;79.15;101450.69;5083419;28;20040;-62
2021/09/19 09:43:06;;;;;;;10.45;5.03;;;;;;;16.47;79.39;101450.34;5091977;28;20498;-61
2021/09/19 09:45:35;;;;;;;7.95;4.40;;;;;;;16.43;78.29;101450.13;5092522;28;20054;-61
2021/09/19 09:48:04;;;;;;;8.82;4.20;;;;;;;16.49;78.23;101446.19;5092107;28;20101;-60
2021/09/19 09:50:32;;;;;;;21.00;13.95;;;;;;;16.51;78.16;101443.97;5068805;28;20044;-61
2021/09/19 09:53:11;;;;;;;10.48;6.07;;;;;;;16.51;78.39;101434.91;5091520;28;20039;-60
2021/09/19 09:55:45;;;;;;;11.43;7.05;;;;;;;16.55;77.95;101442.28;5092269;28;20123;-61
2021/09/19 09:58:18;;;;;;;8.38;4.90;;;;;;;16.56;77.31;101443.91;5092276;28;20075;-61
2021/09/19 10:00:46;;;;;;;8.80;4.85;;;;;;;16.57;77.37;101444.72;5090350;28;20044;-61
2021/09/19 10:03:15;;;;;;;10.80;6.85;;;;;;;16.59;77.94;101443.31;5091652;28;20080;-60
2021/09/19 10:05:43;;;;;;;12.93;8.18;;;;;;;16.65;77.38;101438.59;5091673;28;20032;-61
2021/09/19 10:08:11;;;;;;;8.95;5.45;;;;;;;16.70;77.63;101437.69;5073763;28;20032;-61
2021/09/19 10:10:43;;;;;;;8.93;4.85;;;;;;;16.71;77.15;101439.31;5084805;28;20033;-61
2021/09/19 10:13:14;;;;;;;8.23;4.32;;;;;;;16.74;77.92;101445.06;5087907;28;20119;-61
2021/09/19 10:15:43;;;;;;;7.30;4.68;;;;;;;16.75;76.43;101440.38;5090769;28;20036;-61
2021/09/19 10:18:11;;;;;;;12.27;4.78;;;;;;;16.81;76.67;101433.72;5091598;28;20032;-61
2021/09/19 10:20:48;;;;;;;8.88;4.80;;;;;;;16.84;75.82;101438.66;5087949;28;20036;-61
2021/09/19 10:23:15;;;;;;;7.80;4.68;;;;;;;16.87;75.16;101445.50;5086388;28;20047;-60
2021/09/19 10:25:57;;;;;;;8.90;5.13;;;;;;;16.89;76.02;101430.31;5091971;28;20036;-61
2021/09/19 10:28:37;;;;;;;6.80;4.20;;;;;;;16.90;76.40;101440.22;5091735;28;20040;-58
2021/09/19 10:31:20;;;;;;;6.47;3.42;;;;;;;16.91;76.73;101433.59;5090819;28;20056;-63
2021/09/19 10:33:51;;;;;;;8.20;5.18;;;;;;;16.93;75.35;101430.53;5078070;28;20509;-60
2021/09/19 10:36:22;;;;;;;7.78;4.22;;;;;;;16.97;75.95;101437.91;5077453;28;20498;-61
2021/09/19 10:38:50;;;;;;;8.68;4.50;;;;;;;17.01;75.10;101444.47;5091469;28;20124;-62
2021/09/19 10:41:23;;;;;;;8.75;5.30;;;;;;;17.00;74.61;101442.00;5090198;28;20039;-61
2021/09/19 10:43:53;;;;;;;8.95;4.55;;;;;;;16.99;74.36;101446.69;5086464;28;20052;-62
2021/09/19 10:46:35;;;;;;;10.27;5.47;;;;;;;17.00;74.43;101439.25;5090669;28;20521;-62
2021/09/19 10:49:18;;;;;;;10.93;5.53;;;;;;;17.04;75.21;101440.31;5091377;28;20499;-62
2021/09/19 10:52:01;;;;;;;8.48;5.32;;;;;;;17.08;74.65;101440.50;5079013;28;20487;-62
2021/09/19 10:54:47;;;;;;;15.57;10.20;;;;;;;17.10;75.13;101441.88;5088785;28;20044;-62
2021/09/19 10:57:19;;;;;;;6.78;4.22;;;;;;;17.16;75.49;101448.13;5091381;28;20055;-61
2021/09/19 11:00:08;;;;;;;9.27;5.95;;;;;;;17.16;74.88;101445.38;5091301;28;20032;-61
2021/09/19 11:02:37;;;;;;;8.40;5.50;;;;;;;17.14;74.50;101442.91;5091138;28;20044;-62
2021/09/19 11:05:33;;;;;;;8.70;5.35;;;;;;;17.15;74.58;101440.97;5073074;28;20072;-62
2021/09/19 11:08:16;;;;;;;9.60;6.20;;;;;;;17.17;74.69;101441.50;5090057;28;20409;-62
2021/09/19 11:11:05;;;;;;;7.25;4.53;;;;;;;17.27;74.69;101441.38;5090090;28;20118;-61
2021/09/19 11:13:41;;;;;;;8.80;5.93;;;;;;;17.37;73.32;101438.44;5089693;28;20466;-62
2021/09/19 11:16:17;;;;;;;8.20;5.22;;;;;;;17.42;74.06;101443.88;5092443;28;20075;-62
2021/09/19 11:18:55;;;;;;;8.80;6.03;;;;;;;17.43;73.60;101440.00;5095090;28;20101;-61
2021/09/19 11:21:23;;;;;;;11.85;7.30;;;;;;;17.50;74.10;101444.31;5093648;28;20032;-61
2021/09/19 11:23:52;;;;;;;9.70;5.95;;;;;;;17.48;73.53;101444.59;5093255;28;20048;-61
2021/09/19 11:26:25;;;;;;;8.50;5.72;;;;;;;17.50;73.54;101438.81;5100053;28;20040;-61
2021/09/19 11:28:56;;;;;;;8.23;5.03;;;;;;;17.60;74.03;101444.97;5098939;28;20054;-59
2021/09/19 11:31:24;;;;;;;7.30;4.05;;;;;;;17.68;74.24;101435.22;5098547;28;20525;-61
2021/09/19 11:33:52;;;;;;;8.27;4.97;;;;;;;17.73;72.92;101437.88;5093599;28;20113;-60